sensor_id;sensor_type;location;lat;lon;timestamp;temperature;humidity
11095;DHT22;5601;44.490;11.400;2022-12-18T00:02:14;7.30;99.90
11095;DHT22;5601;44.490;11.400;2022-12-18T00:04:41;7.30;99.90
11095;DHT22;5601;44.490;11.400;2022-12-18T00:07:08;7.30;99.90
11095;DHT22;5601;44.490;11.400;2022-12-18T00:09:35;7.20;99.90
11095;DHT22;5601;44.490;11.400;2022-12-18T00:12:05;7.20;99.90
11095;DHT22;5601;44.490;11.400;2022-12-18T00:14:31;7.30;99.90
11095;DHT22;5601;44.490;11.400;2022-12-18T00:16:59;7.20;99.90
11095;DHT22;5601;44.490;11.400;2022-12-18T00:19:26;7.20;99.90
11095;DHT22;5601;44.490;11.400;2022-12-18T00:21:53;7.20;99.90
11095;DHT22;5601;44.490;11.400;2022-12-18T00:24:20;7.10;99.90
11095;DHT22;5601;44.490;11.400;2022-12-18T00:26:47;7.20;99.90
11095;DHT22;5601;44.490;11.400;2022-12-18T00:29:16;7.10;99.90
11095;DHT22;5601;44.490;11.400;2022-12-18T00:31:43;7.10;99.90
11095;DHT22;5601;44.490;11.400;2022-12-18T00:34:10;7.10;99.90
11095;DHT22;5601;44.490;11.400;2022-12-18T00:36:37;7.00;99.90
11095;DHT22;5601;44.490;11.400;2022-12-18T00:39:04;7.00;99.90
11095;DHT22;5601;44.490;11.400;2022-12-18T00:41:31;6.90;99.90
11095;DHT22;5601;44.490;11.400;2022-12-18T00:44:17;6.90;99.90
11095;DHT22;5601;44.490;11.400;2022-12-18T00:46:44;6.90;99.90
11095;DHT22;5601;44.490;11.400;2022-12-18T00:49:12;6.90;99.90
11095;DHT22;5601;44.490;11.400;2022-12-18T00:51:39;6.90;99.90
11095;DHT22;5601;44.490;11.400;2022-12-18T00:54:06;6.90;99.90
11095;DHT22;5601;44.490;11.400;2022-12-18T00:56:34;6.80;99.90
11095;DHT22;5601;44.490;11.400;2022-12-18T00:59:01;6.80;99.90
11095;DHT22;5601;44.490;11.400;2022-12-18T01:01:30;6.90;99.90
11095;DHT22;5601;44.490;11.400;2022-12-18T01:03:57;6.90;99.90
11095;DHT22;5601;44.490;11.400;2022-12-18T01:06:24;6.90;99.90
11095;DHT22;5601;44.490;11.400;2022-12-18T01:08:51;6.80;99.90
11095;DHT22;5601;44.490;11.400;2022-12-18T01:11:19;6.80;99.90
11095;DHT22;5601;44.490;11.400;2022-12-18T01:13:46;6.80;99.90
11095;DHT22;5601;44.490;11.400;2022-12-18T01:16:14;6.80;99.90
11095;DHT22;5601;44.490;11.400;2022-12-18T01:18:43;6.70;99.90
11095;DHT22;5601;44.490;11.400;2022-12-18T01:21:11;6.70;99.90
11095;DHT22;5601;44.490;11.400;2022-12-18T01:23:39;6.60;99.90
11095;DHT22;5601;44.490;11.400;2022-12-18T01:26:06;6.60;99.90
11095;DHT22;5601;44.490;11.400;2022-12-18T01:28:33;6.60;99.90
11095;DHT22;5601;44.490;11.400;2022-12-18T01:31:11;6.60;99.90
11095;DHT22;5601;44.490;11.400;2022-12-18T01:33:37;6.50;99.90
11095;DHT22;5601;44.490;11.400;2022-12-18T01:36:07;6.40;99.90
11095;DHT22;5601;44.490;11.400;2022-12-18T01:38:34;6.30;99.90
11095;DHT22;5601;44.490;11.400;2022-12-18T01:41:01;6.30;99.90
11095;DHT22;5601;44.490;11.400;2022-12-18T01:43:41;6.20;99.90
11095;DHT22;5601;44.490;11.400;2022-12-18T01:46:08;6.10;99.90
11095;DHT22;5601;44.490;11.400;2022-12-18T01:48:35;6.00;99.90
11095;DHT22;5601;44.490;11.400;2022-12-18T01:51:03;6.00;99.90
11095;DHT22;5601;44.490;11.400;2022-12-18T01:53:32;5.90;99.90
11095;DHT22;5601;44.490;11.400;2022-12-18T01:55:59;5.90;99.90
11095;DHT22;5601;44.490;11.400;2022-12-18T01:58:27;5.90;99.90
11095;DHT22;5601;44.490;11.400;2022-12-18T02:00:56;5.90;99.90
11095;DHT22;5601;44.490;11.400;2022-12-18T02:03:23;5.90;99.90
11095;DHT22;5601;44.490;11.400;2022-12-18T02:05:52;6.00;99.90
11095;DHT22;5601;44.490;11.400;2022-12-18T02:08:22;5.90;99.90
11095;DHT22;5601;44.490;11.400;2022-12-18T02:10:55;5.90;99.90
11095;DHT22;5601;44.490;11.400;2022-12-18T02:13:25;5.90;99.90
11095;DHT22;5601;44.490;11.400;2022-12-18T02:15:55;5.80;99.90
11095;DHT22;5601;44.490;11.400;2022-12-18T02:18:26;5.80;99.90
11095;DHT22;5601;44.490;11.400;2022-12-18T02:20:55;5.80;99.90
11095;DHT22;5601;44.490;11.400;2022-12-18T02:23:35;5.80;99.90
11095;DHT22;5601;44.490;11.400;2022-12-18T02:26:08;5.90;99.90
11095;DHT22;5601;44.490;11.400;2022-12-18T02:28:38;5.90;99.90
11095;DHT22;5601;44.490;11.400;2022-12-18T02:31:07;5.90;99.90
11095;DHT22;5601;44.490;11.400;2022-12-18T02:33:37;5.90;99.90
11095;DHT22;5601;44.490;11.400;2022-12-18T02:36:05;5.90;99.90
11095;DHT22;5601;44.490;11.400;2022-12-18T02:38:34;5.90;99.90
11095;DHT22;5601;44.490;11.400;2022-12-18T02:41:01;5.90;99.90
11095;DHT22;5601;44.490;11.400;2022-12-18T02:43:30;5.90;99.90
11095;DHT22;5601;44.490;11.400;2022-12-18T02:45:57;5.90;99.90
11095;DHT22;5601;44.490;11.400;2022-12-18T02:48:27;5.80;99.90
11095;DHT22;5601;44.490;11.400;2022-12-18T02:50:57;5.80;99.90
11095;DHT22;5601;44.490;11.400;2022-12-18T02:53:27;5.80;99.90
11095;DHT22;5601;44.490;11.400;2022-12-18T02:56:03;5.80;99.90
11095;DHT22;5601;44.490;11.400;2022-12-18T02:58:36;5.90;99.90
11095;DHT22;5601;44.490;11.400;2022-12-18T03:01:08;5.90;99.90
11095;DHT22;5601;44.490;11.400;2022-12-18T03:03:38;5.90;99.90
11095;DHT22;5601;44.490;11.400;2022-12-18T03:06:07;5.90;99.90
11095;DHT22;5601;44.490;11.400;2022-12-18T03:08:36;5.90;99.90
11095;DHT22;5601;44.490;11.400;2022-12-18T03:11:05;5.90;99.90
11095;DHT22;5601;44.490;11.400;2022-12-18T03:13:34;5.90;99.90
11095;DHT22;5601;44.490;11.400;2022-12-18T03:16:02;5.90;99.90
11095;DHT22;5601;44.490;11.400;2022-12-18T03:18:30;5.90;99.90
11095;DHT22;5601;44.490;11.400;2022-12-18T03:21:00;5.90;99.90
11095;DHT22;5601;44.490;11.400;2022-12-18T03:23:30;5.90;99.90
11095;DHT22;5601;44.490;11.400;2022-12-18T03:26:02;5.90;99.90
11095;DHT22;5601;44.490;11.400;2022-12-18T03:28:31;5.90;99.90
11095;DHT22;5601;44.490;11.400;2022-12-18T03:31:00;5.90;99.90
11095;DHT22;5601;44.490;11.400;2022-12-18T03:33:29;6.00;99.90
11095;DHT22;5601;44.490;11.400;2022-12-18T03:35:58;5.90;99.90
11095;DHT22;5601;44.490;11.400;2022-12-18T03:38:26;5.90;99.90
11095;DHT22;5601;44.490;11.400;2022-12-18T03:40:54;5.90;99.90
11095;DHT22;5601;44.490;11.400;2022-12-18T03:43:26;5.90;99.90
11095;DHT22;5601;44.490;11.400;2022-12-18T03:46:02;5.90;99.90
11095;DHT22;5601;44.490;11.400;2022-12-18T03:48:31;5.90;99.90
11095;DHT22;5601;44.490;11.400;2022-12-18T03:51:05;5.90;99.90
11095;DHT22;5601;44.490;11.400;2022-12-18T03:53:35;5.90;99.90
11095;DHT22;5601;44.490;11.400;2022-12-18T03:56:04;5.90;99.90
11095;DHT22;5601;44.490;11.400;2022-12-18T03:58:31;6.00;99.90
11095;DHT22;5601;44.490;11.400;2022-12-18T04:01:00;6.00;99.90
11095;DHT22;5601;44.490;11.400;2022-12-18T04:03:28;6.00;99.90
11095;DHT22;5601;44.490;11.400;2022-12-18T04:05:57;6.00;99.90
11095;DHT22;5601;44.490;11.400;2022-12-18T04:08:25;5.90;99.90
11095;DHT22;5601;44.490;11.400;2022-12-18T04:10:52;6.00;99.90
11095;DHT22;5601;44.490;11.400;2022-12-18T04:13:22;6.00;99.90
11095;DHT22;5601;44.490;11.400;2022-12-18T04:15:50;6.00;99.90
11095;DHT22;5601;44.490;11.400;2022-12-18T04:18:16;6.00;99.90
11095;DHT22;5601;44.490;11.400;2022-12-18T04:20:43;6.00;99.90
11095;DHT22;5601;44.490;11.400;2022-12-18T04:23:12;6.10;99.90
11095;DHT22;5601;44.490;11.400;2022-12-18T04:25:39;6.10;99.90
11095;DHT22;5601;44.490;11.400;2022-12-18T04:28:06;6.10;99.90
11095;DHT22;5601;44.490;11.400;2022-12-18T04:30:33;6.10;99.90
11095;DHT22;5601;44.490;11.400;2022-12-18T04:33:00;6.10;99.90
11095;DHT22;5601;44.490;11.400;2022-12-18T04:35:27;6.10;99.90
11095;DHT22;5601;44.490;11.400;2022-12-18T04:37:54;6.10;99.90
11095;DHT22;5601;44.490;11.400;2022-12-18T04:40:23;6.10;99.90
11095;DHT22;5601;44.490;11.400;2022-12-18T04:42:50;6.00;99.90
11095;DHT22;5601;44.490;11.400;2022-12-18T04:45:17;6.00;99.90
11095;DHT22;5601;44.490;11.400;2022-12-18T04:47:44;6.00;99.90
11095;DHT22;5601;44.490;11.400;2022-12-18T04:50:12;6.00;99.90
11095;DHT22;5601;44.490;11.400;2022-12-18T04:52:39;6.00;99.90
11095;DHT22;5601;44.490;11.400;2022-12-18T04:55:06;6.00;99.90
11095;DHT22;5601;44.490;11.400;2022-12-18T04:57:35;6.00;99.90
11095;DHT22;5601;44.490;11.400;2022-12-18T05:00:02;6.00;99.90
11095;DHT22;5601;44.490;11.400;2022-12-18T05:02:29;6.00;99.90
11095;DHT22;5601;44.490;11.400;2022-12-18T05:04:56;6.00;99.90
11095;DHT22;5601;44.490;11.400;2022-12-18T05:07:23;6.00;99.90
11095;DHT22;5601;44.490;11.400;2022-12-18T05:09:50;6.00;99.90
11095;DHT22;5601;44.490;11.400;2022-12-18T05:12:17;6.00;99.90
11095;DHT22;5601;44.490;11.400;2022-12-18T05:14:46;6.00;99.90
11095;DHT22;5601;44.490;11.400;2022-12-18T05:17:13;6.00;99.90
11095;DHT22;5601;44.490;11.400;2022-12-18T05:19:40;6.00;99.90
11095;DHT22;5601;44.490;11.400;2022-12-18T05:22:07;6.00;99.90
11095;DHT22;5601;44.490;11.400;2022-12-18T05:24:34;6.00;99.90
11095;DHT22;5601;44.490;11.400;2022-12-18T05:27:01;6.00;99.90
11095;DHT22;5601;44.490;11.400;2022-12-18T05:29:29;6.00;99.90
11095;DHT22;5601;44.490;11.400;2022-12-18T05:31:57;5.90;99.90
11095;DHT22;5601;44.490;11.400;2022-12-18T05:34:24;5.90;99.90
11095;DHT22;5601;44.490;11.400;2022-12-18T05:36:51;6.00;99.90
11095;DHT22;5601;44.490;11.400;2022-12-18T05:39:18;5.90;99.90
11095;DHT22;5601;44.490;11.400;2022-12-18T05:41:45;6.00;99.90
11095;DHT22;5601;44.490;11.400;2022-12-18T05:44:13;6.00;99.90
11095;DHT22;5601;44.490;11.400;2022-12-18T05:46:40;6.00;99.90
11095;DHT22;5601;44.490;11.400;2022-12-18T05:49:08;6.00;99.90
11095;DHT22;5601;44.490;11.400;2022-12-18T05:51:36;6.00;99.90
11095;DHT22;5601;44.490;11.400;2022-12-18T05:54:03;5.90;99.90
11095;DHT22;5601;44.490;11.400;2022-12-18T05:56:30;5.90;99.90
11095;DHT22;5601;44.490;11.400;2022-12-18T05:58:57;5.90;99.90
11095;DHT22;5601;44.490;11.400;2022-12-18T06:01:25;6.00;99.90
11095;DHT22;5601;44.490;11.400;2022-12-18T06:03:52;5.90;99.90
11095;DHT22;5601;44.490;11.400;2022-12-18T06:06:22;5.90;99.90
11095;DHT22;5601;44.490;11.400;2022-12-18T06:08:49;5.90;99.90
11095;DHT22;5601;44.490;11.400;2022-12-18T06:11:17;5.90;99.90
11095;DHT22;5601;44.490;11.400;2022-12-18T06:13:44;5.80;99.90
11095;DHT22;5601;44.490;11.400;2022-12-18T06:16:11;5.80;99.90
11095;DHT22;5601;44.490;11.400;2022-12-18T06:18:38;5.70;99.90
11095;DHT22;5601;44.490;11.400;2022-12-18T06:21:07;5.70;99.90
11095;DHT22;5601;44.490;11.400;2022-12-18T06:23:36;5.60;99.90
11095;DHT22;5601;44.490;11.400;2022-12-18T06:26:03;5.50;99.90
11095;DHT22;5601;44.490;11.400;2022-12-18T06:28:31;5.40;99.90
11095;DHT22;5601;44.490;11.400;2022-12-18T06:30:58;5.30;99.90
11095;DHT22;5601;44.490;11.400;2022-12-18T06:33:25;5.20;99.90
11095;DHT22;5601;44.490;11.400;2022-12-18T06:35:53;5.10;99.90
11095;DHT22;5601;44.490;11.400;2022-12-18T06:38:20;5.00;99.90
11095;DHT22;5601;44.490;11.400;2022-12-18T06:40:49;5.00;99.90
11095;DHT22;5601;44.490;11.400;2022-12-18T06:43:16;4.90;99.90
11095;DHT22;5601;44.490;11.400;2022-12-18T06:45:42;4.90;99.90
11095;DHT22;5601;44.490;11.400;2022-12-18T06:48:09;4.90;99.90
11095;DHT22;5601;44.490;11.400;2022-12-18T06:50:36;4.80;99.90
11095;DHT22;5601;44.490;11.400;2022-12-18T06:53:04;4.80;99.90
11095;DHT22;5601;44.490;11.400;2022-12-18T06:55:31;4.80;99.90
11095;DHT22;5601;44.490;11.400;2022-12-18T06:57:59;4.80;99.90
11095;DHT22;5601;44.490;11.400;2022-12-18T07:00:26;4.70;99.90
11095;DHT22;5601;44.490;11.400;2022-12-18T07:02:54;4.70;99.90
11095;DHT22;5601;44.490;11.400;2022-12-18T07:05:21;4.70;99.90
11095;DHT22;5601;44.490;11.400;2022-12-18T07:07:48;4.70;99.90
11095;DHT22;5601;44.490;11.400;2022-12-18T07:10:15;4.70;99.90
11095;DHT22;5601;44.490;11.400;2022-12-18T07:12:42;4.60;99.90
11095;DHT22;5601;44.490;11.400;2022-12-18T07:15:10;4.70;99.90
11095;DHT22;5601;44.490;11.400;2022-12-18T07:17:37;4.80;99.90
11095;DHT22;5601;44.490;11.400;2022-12-18T07:20:04;4.80;99.90
11095;DHT22;5601;44.490;11.400;2022-12-18T07:22:31;4.80;99.90
11095;DHT22;5601;44.490;11.400;2022-12-18T07:24:58;4.80;99.90
11095;DHT22;5601;44.490;11.400;2022-12-18T07:27:26;4.90;99.90
11095;DHT22;5601;44.490;11.400;2022-12-18T07:29:53;4.90;99.90
11095;DHT22;5601;44.490;11.400;2022-12-18T07:32:21;5.00;99.90
11095;DHT22;5601;44.490;11.400;2022-12-18T07:34:48;5.00;99.90
11095;DHT22;5601;44.490;11.400;2022-12-18T07:37:15;5.10;99.90
11095;DHT22;5601;44.490;11.400;2022-12-18T07:39:43;5.20;99.90
11095;DHT22;5601;44.490;11.400;2022-12-18T07:42:10;5.30;99.90
11095;DHT22;5601;44.490;11.400;2022-12-18T07:44:54;5.30;99.90
11095;DHT22;5601;44.490;11.400;2022-12-18T07:47:22;5.40;99.90
11095;DHT22;5601;44.490;11.400;2022-12-18T07:49:49;5.50;99.90
11095;DHT22;5601;44.490;11.400;2022-12-18T07:52:16;5.60;99.90
11095;DHT22;5601;44.490;11.400;2022-12-18T07:54:43;5.70;99.90
11095;DHT22;5601;44.490;11.400;2022-12-18T07:57:10;5.70;99.90
11095;DHT22;5601;44.490;11.400;2022-12-18T07:59:37;5.80;99.90
11095;DHT22;5601;44.490;11.400;2022-12-18T08:02:05;5.90;99.90
11095;DHT22;5601;44.490;11.400;2022-12-18T08:04:33;6.00;99.90
11095;DHT22;5601;44.490;11.400;2022-12-18T08:07:00;6.10;99.90
11095;DHT22;5601;44.490;11.400;2022-12-18T08:09:27;6.10;99.90
11095;DHT22;5601;44.490;11.400;2022-12-18T08:11:54;6.20;99.90
11095;DHT22;5601;44.490;11.400;2022-12-18T08:14:21;6.20;99.90
11095;DHT22;5601;44.490;11.400;2022-12-18T08:16:48;6.20;99.90
11095;DHT22;5601;44.490;11.400;2022-12-18T08:19:15;6.30;99.90
11095;DHT22;5601;44.490;11.400;2022-12-18T08:21:43;6.30;99.90
11095;DHT22;5601;44.490;11.400;2022-12-18T08:24:11;6.40;99.90
11095;DHT22;5601;44.490;11.400;2022-12-18T08:26:38;6.40;99.90
11095;DHT22;5601;44.490;11.400;2022-12-18T08:29:05;6.50;99.90
11095;DHT22;5601;44.490;11.400;2022-12-18T08:31:33;6.60;99.90
11095;DHT22;5601;44.490;11.400;2022-12-18T08:34:00;6.70;99.90
11095;DHT22;5601;44.490;11.400;2022-12-18T08:36:30;6.60;99.90
11095;DHT22;5601;44.490;11.400;2022-12-18T08:38:59;6.60;99.90
11095;DHT22;5601;44.490;11.400;2022-12-18T08:41:26;6.50;99.90
11095;DHT22;5601;44.490;11.400;2022-12-18T08:43:53;6.50;99.90
11095;DHT22;5601;44.490;11.400;2022-12-18T08:46:38;6.50;99.90
11095;DHT22;5601;44.490;11.400;2022-12-18T08:49:05;6.60;99.90
11095;DHT22;5601;44.490;11.400;2022-12-18T08:51:32;6.60;99.90
11095;DHT22;5601;44.490;11.400;2022-12-18T08:54:01;6.50;99.90
11095;DHT22;5601;44.490;11.400;2022-12-18T08:56:28;6.60;99.90
11095;DHT22;5601;44.490;11.400;2022-12-18T08:58:56;6.70;99.90
11095;DHT22;5601;44.490;11.400;2022-12-18T09:01:23;6.80;99.90
11095;DHT22;5601;44.490;11.400;2022-12-18T09:03:50;6.90;99.90
11095;DHT22;5601;44.490;11.400;2022-12-18T09:06:18;6.90;99.90
11095;DHT22;5601;44.490;11.400;2022-12-18T09:08:45;6.90;99.90
11095;DHT22;5601;44.490;11.400;2022-12-18T09:11:15;6.90;99.90
11095;DHT22;5601;44.490;11.400;2022-12-18T09:13:45;6.90;99.90
11095;DHT22;5601;44.490;11.400;2022-12-18T09:16:13;6.90;99.90
11095;DHT22;5601;44.490;11.400;2022-12-18T09:18:40;7.10;99.90
11095;DHT22;5601;44.490;11.400;2022-12-18T09:21:08;7.10;99.90
11095;DHT22;5601;44.490;11.400;2022-12-18T09:23:35;7.00;99.90
11095;DHT22;5601;44.490;11.400;2022-12-18T09:26:02;6.90;99.90
11095;DHT22;5601;44.490;11.400;2022-12-18T09:28:31;7.10;99.90
11095;DHT22;5601;44.490;11.400;2022-12-18T09:30:58;7.10;99.90
11095;DHT22;5601;44.490;11.400;2022-12-18T09:33:25;7.30;99.90
11095;DHT22;5601;44.490;11.400;2022-12-18T09:35:53;7.40;99.90
11095;DHT22;5601;44.490;11.400;2022-12-18T09:38:19;7.40;99.90
11095;DHT22;5601;44.490;11.400;2022-12-18T09:40:49;7.40;99.90
11095;DHT22;5601;44.490;11.400;2022-12-18T09:43:17;7.50;99.90
11095;DHT22;5601;44.490;11.400;2022-12-18T09:45:46;7.40;99.90
11095;DHT22;5601;44.490;11.400;2022-12-18T09:48:15;7.40;99.90
11095;DHT22;5601;44.490;11.400;2022-12-18T09:50:45;7.40;99.90
11095;DHT22;5601;44.490;11.400;2022-12-18T09:53:14;7.40;99.90
11095;DHT22;5601;44.490;11.400;2022-12-18T09:55:42;7.30;99.90
11095;DHT22;5601;44.490;11.400;2022-12-18T09:58:13;7.30;99.90
11095;DHT22;5601;44.490;11.400;2022-12-18T10:00:41;7.20;99.90
11095;DHT22;5601;44.490;11.400;2022-12-18T10:03:10;7.20;99.90
11095;DHT22;5601;44.490;11.400;2022-12-18T10:05:39;7.10;99.90
11095;DHT22;5601;44.490;11.400;2022-12-18T10:08:09;7.10;99.90
11095;DHT22;5601;44.490;11.400;2022-12-18T10:10:38;7.10;99.90
11095;DHT22;5601;44.490;11.400;2022-12-18T10:13:09;7.10;99.90
11095;DHT22;5601;44.490;11.400;2022-12-18T10:15:37;7.00;99.90
11095;DHT22;5601;44.490;11.400;2022-12-18T10:18:14;7.00;99.90
11095;DHT22;5601;44.490;11.400;2022-12-18T10:20:46;7.10;99.90
11095;DHT22;5601;44.490;11.400;2022-12-18T10:23:15;7.10;99.90
11095;DHT22;5601;44.490;11.400;2022-12-18T10:25:49;7.10;99.90
11095;DHT22;5601;44.490;11.400;2022-12-18T10:28:17;7.20;99.90
11095;DHT22;5601;44.490;11.400;2022-12-18T10:30:45;7.30;99.90
11095;DHT22;5601;44.490;11.400;2022-12-18T10:33:14;7.50;99.90
11095;DHT22;5601;44.490;11.400;2022-12-18T10:35:42;7.60;99.90
11095;DHT22;5601;44.490;11.400;2022-12-18T10:38:20;7.70;99.90
11095;DHT22;5601;44.490;11.400;2022-12-18T10:40:49;7.80;99.90
11095;DHT22;5601;44.490;11.400;2022-12-18T10:43:19;7.90;99.90
11095;DHT22;5601;44.490;11.400;2022-12-18T10:45:57;8.00;99.90
11095;DHT22;5601;44.490;11.400;2022-12-18T10:48:26;8.10;99.90
11095;DHT22;5601;44.490;11.400;2022-12-18T10:50:53;7.90;99.90
11095;DHT22;5601;44.490;11.400;2022-12-18T10:53:21;7.90;99.90
11095;DHT22;5601;44.490;11.400;2022-12-18T10:55:49;8.00;99.90
11095;DHT22;5601;44.490;11.400;2022-12-18T10:58:18;8.00;99.90
11095;DHT22;5601;44.490;11.400;2022-12-18T11:00:53;8.10;99.90
11095;DHT22;5601;44.490;11.400;2022-12-18T11:03:30;8.10;99.90
11095;DHT22;5601;44.490;11.400;2022-12-18T11:06:01;8.20;99.90
11095;DHT22;5601;44.490;11.400;2022-12-18T11:08:28;8.40;99.90
11095;DHT22;5601;44.490;11.400;2022-12-18T11:10:55;8.50;99.90
11095;DHT22;5601;44.490;11.400;2022-12-18T11:13:23;8.60;99.90
11095;DHT22;5601;44.490;11.400;2022-12-18T11:15:50;8.70;99.90
11095;DHT22;5601;44.490;11.400;2022-12-18T11:18:18;8.50;99.90
11095;DHT22;5601;44.490;11.400;2022-12-18T11:20:51;8.50;99.90
11095;DHT22;5601;44.490;11.400;2022-12-18T11:23:19;8.40;99.90
11095;DHT22;5601;44.490;11.400;2022-12-18T11:25:52;8.50;99.90
11095;DHT22;5601;44.490;11.400;2022-12-18T11:28:27;8.60;99.90
11095;DHT22;5601;44.490;11.400;2022-12-18T11:31:08;8.70;99.90
11095;DHT22;5601;44.490;11.400;2022-12-18T11:33:36;8.60;99.90
11095;DHT22;5601;44.490;11.400;2022-12-18T11:36:07;8.50;99.90
11095;DHT22;5601;44.490;11.400;2022-12-18T11:38:35;8.50;99.90
11095;DHT22;5601;44.490;11.400;2022-12-18T11:41:04;8.70;99.90
11095;DHT22;5601;44.490;11.400;2022-12-18T11:43:34;8.70;99.90
11095;DHT22;5601;44.490;11.400;2022-12-18T11:46:04;8.80;99.90
11095;DHT22;5601;44.490;11.400;2022-12-18T11:48:32;8.90;99.90
11095;DHT22;5601;44.490;11.400;2022-12-18T11:51:01;8.80;99.90
11095;DHT22;5601;44.490;11.400;2022-12-18T11:53:31;8.80;99.90
11095;DHT22;5601;44.490;11.400;2022-12-18T11:56:05;8.90;99.90
11095;DHT22;5601;44.490;11.400;2022-12-18T11:58:42;8.90;99.90
11095;DHT22;5601;44.490;11.400;2022-12-18T12:01:13;8.90;99.90
11095;DHT22;5601;44.490;11.400;2022-12-18T12:03:49;8.90;99.90
11095;DHT22;5601;44.490;11.400;2022-12-18T12:06:21;8.90;99.90
11095;DHT22;5601;44.490;11.400;2022-12-18T12:08:59;8.90;99.90
11095;DHT22;5601;44.490;11.400;2022-12-18T12:11:31;8.90;99.90
11095;DHT22;5601;44.490;11.400;2022-12-18T12:14:07;9.00;99.90
11095;DHT22;5601;44.490;11.400;2022-12-18T12:16:37;9.00;99.90
11095;DHT22;5601;44.490;11.400;2022-12-18T12:19:15;9.00;99.90
11095;DHT22;5601;44.490;11.400;2022-12-18T12:21:46;8.90;99.90
11095;DHT22;5601;44.490;11.400;2022-12-18T12:24:22;8.90;99.90
11095;DHT22;5601;44.490;11.400;2022-12-18T12:26:55;9.00;99.90
11095;DHT22;5601;44.490;11.400;2022-12-18T12:29:28;9.10;99.90
11095;DHT22;5601;44.490;11.400;2022-12-18T12:32:04;9.20;99.90
11095;DHT22;5601;44.490;11.400;2022-12-18T12:34:34;9.20;99.90
11095;DHT22;5601;44.490;11.400;2022-12-18T12:37:07;9.20;99.90
11095;DHT22;5601;44.490;11.400;2022-12-18T12:39:38;9.20;99.90
11095;DHT22;5601;44.490;11.400;2022-12-18T12:42:10;9.20;99.90
11095;DHT22;5601;44.490;11.400;2022-12-18T12:44:56;9.20;99.90
11095;DHT22;5601;44.490;11.400;2022-12-18T12:47:25;9.10;99.90
11095;DHT22;5601;44.490;11.400;2022-12-18T12:49:53;9.00;99.90
11095;DHT22;5601;44.490;11.400;2022-12-18T12:52:22;9.00;99.90
11095;DHT22;5601;44.490;11.400;2022-12-18T12:54:53;9.00;99.90
11095;DHT22;5601;44.490;11.400;2022-12-18T12:57:20;9.10;99.90
11095;DHT22;5601;44.490;11.400;2022-12-18T12:59:51;9.10;99.90
11095;DHT22;5601;44.490;11.400;2022-12-18T13:02:20;9.10;99.90
11095;DHT22;5601;44.490;11.400;2022-12-18T13:04:49;9.00;99.90
11095;DHT22;5601;44.490;11.400;2022-12-18T13:07:20;9.00;99.90
11095;DHT22;5601;44.490;11.400;2022-12-18T13:12:34;9.00;99.90
11095;DHT22;5601;44.490;11.400;2022-12-18T13:15:20;9.00;99.90
11095;DHT22;5601;44.490;11.400;2022-12-18T13:17:48;9.00;99.90
11095;DHT22;5601;44.490;11.400;2022-12-18T13:20:14;9.00;99.90
11095;DHT22;5601;44.490;11.400;2022-12-18T13:22:43;9.10;99.90
11095;DHT22;5601;44.490;11.400;2022-12-18T13:25:29;9.10;99.90
11095;DHT22;5601;44.490;11.400;2022-12-18T13:28:01;9.10;99.90
11095;DHT22;5601;44.490;11.400;2022-12-18T13:30:45;9.00;99.90
11095;DHT22;5601;44.490;11.400;2022-12-18T13:36:00;9.00;99.90
11095;DHT22;5601;44.490;11.400;2022-12-18T13:38:33;9.00;99.90
11095;DHT22;5601;44.490;11.400;2022-12-18T13:41:00;8.90;99.90
11095;DHT22;5601;44.490;11.400;2022-12-18T13:43:37;8.90;99.90
11095;DHT22;5601;44.490;11.400;2022-12-18T13:46:18;8.90;99.90
11095;DHT22;5601;44.490;11.400;2022-12-18T13:48:50;8.90;99.90
11095;DHT22;5601;44.490;11.400;2022-12-18T13:51:17;8.90;99.90
11095;DHT22;5601;44.490;11.400;2022-12-18T13:53:47;8.90;99.90
11095;DHT22;5601;44.490;11.400;2022-12-18T13:56:15;8.80;99.90
11095;DHT22;5601;44.490;11.400;2022-12-18T13:58:44;8.80;99.90
11095;DHT22;5601;44.490;11.400;2022-12-18T14:01:24;8.80;99.90
11095;DHT22;5601;44.490;11.400;2022-12-18T14:03:51;8.70;99.90
11095;DHT22;5601;44.490;11.400;2022-12-18T14:06:35;8.70;99.90
11095;DHT22;5601;44.490;11.400;2022-12-18T14:09:02;8.60;99.90
11095;DHT22;5601;44.490;11.400;2022-12-18T14:11:29;8.60;99.90
11095;DHT22;5601;44.490;11.400;2022-12-18T14:13:58;8.60;99.90
11095;DHT22;5601;44.490;11.400;2022-12-18T14:16:25;8.60;99.90
11095;DHT22;5601;44.490;11.400;2022-12-18T14:18:53;8.60;99.90
11095;DHT22;5601;44.490;11.400;2022-12-18T14:21:22;8.60;99.90
11095;DHT22;5601;44.490;11.400;2022-12-18T14:23:50;8.50;99.90
11095;DHT22;5601;44.490;11.400;2022-12-18T14:26:30;8.50;99.90
11095;DHT22;5601;44.490;11.400;2022-12-18T14:29:00;8.50;99.90
11095;DHT22;5601;44.490;11.400;2022-12-18T14:31:28;8.40;99.90
11095;DHT22;5601;44.490;11.400;2022-12-18T14:33:55;8.40;99.90
11095;DHT22;5601;44.490;11.400;2022-12-18T14:36:22;8.30;99.90
11095;DHT22;5601;44.490;11.400;2022-12-18T14:38:50;8.30;99.90
11095;DHT22;5601;44.490;11.400;2022-12-18T14:41:19;8.20;99.90
11095;DHT22;5601;44.490;11.400;2022-12-18T14:43:47;8.20;99.90
11095;DHT22;5601;44.490;11.400;2022-12-18T14:46:27;8.10;99.90
11095;DHT22;5601;44.490;11.400;2022-12-18T14:48:54;8.10;99.90
11095;DHT22;5601;44.490;11.400;2022-12-18T14:51:22;8.00;99.90
11095;DHT22;5601;44.490;11.400;2022-12-18T14:53:53;8.00;99.90
11095;DHT22;5601;44.490;11.400;2022-12-18T14:56:21;7.90;99.90
11095;DHT22;5601;44.490;11.400;2022-12-18T14:58:49;7.90;99.90
11095;DHT22;5601;44.490;11.400;2022-12-18T15:01:20;7.80;99.90
11095;DHT22;5601;44.490;11.400;2022-12-18T15:03:49;7.80;99.90
11095;DHT22;5601;44.490;11.400;2022-12-18T15:06:24;7.70;99.90
11095;DHT22;5601;44.490;11.400;2022-12-18T15:08:52;7.60;99.90
11095;DHT22;5601;44.490;11.400;2022-12-18T15:11:26;7.60;99.90
11095;DHT22;5601;44.490;11.400;2022-12-18T15:13:53;7.50;99.90
11095;DHT22;5601;44.490;11.400;2022-12-18T15:16:20;7.40;99.90
11095;DHT22;5601;44.490;11.400;2022-12-18T15:18:49;7.30;99.90
11095;DHT22;5601;44.490;11.400;2022-12-18T15:21:16;7.10;99.90
11095;DHT22;5601;44.490;11.400;2022-12-18T15:23:46;7.00;99.90
11095;DHT22;5601;44.490;11.400;2022-12-18T15:26:13;7.00;99.90
11095;DHT22;5601;44.490;11.400;2022-12-18T15:28:43;6.90;99.90
11095;DHT22;5601;44.490;11.400;2022-12-18T15:31:21;6.80;99.90
11095;DHT22;5601;44.490;11.400;2022-12-18T15:36:35;6.60;99.90
11095;DHT22;5601;44.490;11.400;2022-12-18T15:39:03;6.50;99.90
11095;DHT22;5601;44.490;11.400;2022-12-18T15:41:30;6.40;99.90
11095;DHT22;5601;44.490;11.400;2022-12-18T15:43:58;6.40;99.90
11095;DHT22;5601;44.490;11.400;2022-12-18T15:46:24;6.30;99.90
11095;DHT22;5601;44.490;11.400;2022-12-18T15:48:52;6.30;99.90
11095;DHT22;5601;44.490;11.400;2022-12-18T15:51:20;6.30;99.90
11095;DHT22;5601;44.490;11.400;2022-12-18T15:53:51;6.20;99.90
11095;DHT22;5601;44.490;11.400;2022-12-18T15:56:19;6.10;99.90
11095;DHT22;5601;44.490;11.400;2022-12-18T15:59:04;6.00;99.90
11095;DHT22;5601;44.490;11.400;2022-12-18T16:01:35;6.00;99.90
11095;DHT22;5601;44.490;11.400;2022-12-18T16:04:03;6.00;99.90
11095;DHT22;5601;44.490;11.400;2022-12-18T16:06:30;5.90;99.90